createdAt,value
2023-05-21T00:00:00.669Z,82.65
2023-05-21T00:01:00.701Z,82.67
2023-05-21T00:02:01.121Z,82.68
2023-05-21T00:03:00.791Z,82.68
2023-05-21T00:04:00.750Z,82.65
2023-05-21T00:05:00.624Z,82.66
2023-05-21T00:06:00.639Z,82.65
2023-05-21T00:07:00.628Z,82.60
2023-05-21T00:08:00.989Z,82.51
2023-05-21T00:09:00.609Z,82.42
2023-05-21T00:10:00.583Z,82.38
2023-05-21T00:11:00.569Z,82.30
2023-05-21T00:12:00.560Z,82.25
2023-05-21T00:13:00.572Z,82.30
2023-05-21T00:14:00.532Z,82.34
2023-05-21T00:15:00.546Z,82.34
2023-05-21T00:16:00.516Z,82.38
2023-05-21T00:17:00.741Z,82.47
2023-05-21T00:18:00.522Z,82.52
2023-05-21T00:19:00.552Z,82.49
2023-05-21T00:20:00.683Z,82.49
2023-05-21T00:21:00.472Z,82.49
2023-05-21T00:22:00.417Z,82.45
2023-05-21T00:23:00.469Z,82.46
2023-05-21T00:24:00.409Z,82.45
2023-05-21T00:25:00.409Z,82.44
2023-05-21T00:26:00.982Z,82.45
2023-05-21T00:27:00.382Z,82.45
2023-05-21T00:28:00.390Z,82.50
2023-05-21T00:29:00.404Z,82.53
2023-05-21T00:30:01.064Z,82.55
2023-05-21T00:31:00.353Z,82.61
2023-05-21T00:32:00.383Z,82.68
2023-05-21T00:33:01.212Z,82.76
2023-05-21T00:34:00.285Z,82.83
2023-05-21T00:35:00.297Z,82.88
2023-05-21T00:36:01.228Z,82.89
2023-05-21T00:37:00.706Z,82.88
2023-05-21T00:38:00.268Z,82.89
2023-05-21T00:39:00.251Z,82.95
2023-05-21T00:40:00.291Z,82.95
2023-05-21T00:41:00.511Z,82.92
2023-05-21T00:42:01.156Z,82.92
2023-05-21T00:43:00.221Z,82.94
2023-05-21T00:44:00.192Z,82.94
2023-05-21T00:45:00.238Z,82.93
2023-05-21T00:46:00.257Z,83.00
2023-05-21T00:47:00.163Z,83.03
2023-05-21T00:48:00.171Z,83.08
2023-05-21T00:49:00.137Z,83.13
2023-05-21T00:50:00.174Z,83.14
2023-05-21T00:51:00.139Z,83.15
2023-05-21T00:52:00.125Z,83.15
2023-05-21T00:53:00.134Z,83.22
2023-05-21T00:54:00.061Z,83.24
2023-05-21T00:55:00.086Z,83.25
2023-05-21T00:56:00.051Z,83.29
2023-05-21T00:57:00.108Z,83.31
2023-05-21T00:58:00.055Z,83.31
2023-05-21T00:59:00.044Z,83.36
2023-05-21T01:00:00.075Z,83.40
2023-05-21T01:01:00.026Z,83.46
2023-05-21T01:02:00.000Z,83.54
2023-05-21T01:03:00.084Z,83.58
2023-05-21T01:03:59.934Z,83.61
2023-05-21T01:04:59.976Z,83.68
2023-05-21T01:06:00.391Z,83.68
2023-05-21T01:06:59.920Z,83.66
2023-05-21T01:07:59.892Z,83.64
2023-05-21T01:08:59.905Z,83.66
2023-05-21T01:09:59.903Z,83.68
2023-05-21T01:10:59.879Z,83.68
2023-05-21T01:11:59.873Z,83.69
2023-05-21T01:12:59.882Z,83.68
2023-05-21T01:13:59.850Z,83.69
2023-05-21T01:14:59.826Z,83.72
2023-05-21T01:16:00.174Z,83.70
2023-05-21T01:16:59.850Z,83.65
2023-05-21T01:17:59.830Z,83.69
2023-05-21T01:18:59.980Z,83.66
2023-05-21T01:19:59.757Z,83.64
2023-05-21T01:20:59.919Z,83.61
2023-05-21T01:21:59.739Z,83.61
2023-05-21T01:22:59.814Z,83.60
2023-05-21T01:24:00.178Z,83.64
2023-05-21T01:24:59.724Z,83.70
2023-05-21T01:25:59.689Z,83.76
2023-05-21T01:26:59.718Z,83.83
2023-05-21T01:27:59.665Z,83.87
2023-05-21T01:28:59.668Z,83.84
2023-05-21T01:30:00.232Z,83.83
2023-05-21T01:30:59.649Z,83.83
2023-05-21T01:31:59.638Z,83.81
2023-05-21T01:32:59.692Z,83.81
2023-05-21T01:33:59.678Z,83.84
2023-05-21T01:34:59.609Z,83.88
2023-05-21T01:35:59.572Z,83.87
2023-05-21T01:37:00.194Z,83.83
2023-05-21T01:37:59.924Z,83.81
2023-05-21T01:38:59.554Z,83.82
2023-05-21T01:40:00.188Z,83.82
2023-05-21T01:40:59.520Z,83.81
2023-05-21T01:41:59.536Z,83.81
2023-05-21T01:42:59.523Z,83.78
2023-05-21T01:43:59.491Z,83.79
2023-05-21T01:44:59.655Z,83.78
2023-05-21T01:45:59.490Z,83.81
2023-05-21T01:46:59.493Z,83.82
2023-05-21T01:47:59.570Z,83.78
2023-05-21T01:48:59.580Z,83.77
2023-05-21T01:49:59.423Z,83.88
2023-05-21T01:50:59.429Z,83.95
2023-05-21T01:51:59.664Z,83.99
2023-05-21T01:52:59.705Z,84.01
2023-05-21T01:53:59.393Z,84.05
2023-05-21T01:54:59.453Z,84.08
2023-05-21T01:55:59.464Z,84.12
2023-05-21T01:56:59.409Z,84.15
2023-05-21T01:58:01.801Z,84.20
2023-05-21T01:58:59.614Z,84.24
2023-05-21T01:59:59.319Z,84.31
2023-05-21T02:00:59.605Z,84.38
2023-05-21T02:01:59.666Z,84.47
2023-05-21T02:02:59.812Z,84.48
2023-05-21T02:03:59.806Z,84.58
2023-05-21T02:04:59.262Z,84.60
2023-05-21T02:05:59.247Z,84.59
2023-05-21T02:06:59.762Z,84.59
2023-05-21T02:07:59.216Z,84.57
2023-05-21T02:08:59.235Z,84.56
2023-05-21T02:09:59.394Z,84.57
2023-05-21T02:10:59.204Z,84.58
2023-05-21T02:11:59.224Z,84.57
2023-05-21T02:12:59.231Z,84.55
2023-05-21T02:13:59.158Z,84.57
2023-05-21T02:14:59.161Z,84.58
2023-05-21T02:15:59.802Z,84.62
2023-05-21T02:16:59.233Z,84.62
2023-05-21T02:18:00.175Z,84.56
2023-05-21T02:18:59.740Z,84.51
2023-05-21T02:19:59.184Z,84.53
2023-05-21T02:20:59.096Z,84.51
2023-05-21T02:21:59.084Z,84.50
2023-05-21T02:22:59.096Z,84.49
2023-05-21T02:23:59.330Z,84.50
2023-05-21T02:24:59.254Z,84.53
2023-05-21T02:26:00.116Z,84.56
2023-05-21T02:26:59.026Z,84.57
2023-05-21T02:27:59.237Z,84.63
2023-05-21T02:28:59.261Z,84.64
2023-05-21T02:29:58.985Z,84.70
2023-05-21T02:30:59.802Z,84.70
2023-05-21T02:32:00.067Z,84.73
2023-05-21T02:32:59.101Z,84.72
2023-05-21T02:33:58.997Z,84.76
2023-05-21T02:34:58.972Z,84.79
2023-05-21T02:35:59.016Z,84.79
2023-05-21T02:36:59.033Z,84.81
2023-05-21T02:37:59.067Z,84.79
2023-05-21T02:38:59.092Z,84.80
2023-05-21T02:39:59.116Z,84.82
2023-05-21T02:40:59.128Z,84.85
2023-05-21T02:41:59.183Z,84.89
2023-05-21T02:42:59.217Z,84.87
2023-05-21T02:43:59.259Z,84.87
2023-05-21T02:44:58.814Z,84.91
2023-05-21T02:45:58.879Z,84.92
2023-05-21T02:46:58.866Z,84.90
2023-05-21T02:47:58.917Z,84.87
2023-05-21T02:48:58.817Z,84.79
2023-05-21T02:49:58.945Z,84.69
2023-05-21T02:50:58.754Z,84.71
2023-05-21T02:51:58.995Z,84.73
2023-05-21T02:52:58.710Z,84.73
2023-05-21T02:53:58.732Z,84.74
2023-05-21T02:54:59.063Z,84.72
2023-05-21T02:55:59.093Z,84.72
2023-05-21T02:56:59.134Z,84.71
2023-05-21T02:57:59.149Z,84.70
2023-05-21T02:58:59.195Z,84.70
2023-05-21T02:59:59.209Z,84.70
2023-05-21T03:00:59.249Z,84.78
2023-05-21T03:01:59.291Z,84.77
2023-05-21T03:02:58.750Z,84.81
2023-05-21T03:03:58.882Z,84.82
2023-05-21T03:04:59.265Z,84.83
2023-05-21T03:05:58.611Z,84.86
2023-05-21T03:06:59.256Z,84.88
2023-05-21T03:07:59.278Z,84.95
2023-05-21T03:08:58.526Z,85.06
2023-05-21T03:09:58.550Z,85.05
2023-05-21T03:10:58.781Z,85.06
2023-05-21T03:11:59.258Z,85.09
2023-05-21T03:12:58.645Z,85.12
2023-05-21T03:13:59.280Z,85.16
2023-05-21T03:14:59.274Z,85.16
2023-05-21T03:15:58.563Z,85.17
2023-05-21T03:16:59.387Z,85.17
2023-05-21T03:17:59.244Z,85.16
2023-05-21T03:18:58.999Z,85.14
2023-05-21T03:19:59.296Z,85.15
2023-05-21T03:20:58.904Z,85.12
2023-05-21T03:21:58.403Z,85.13
2023-05-21T03:22:58.404Z,85.18
2023-05-21T03:23:58.450Z,85.20
2023-05-21T03:24:58.478Z,85.22
2023-05-21T03:25:58.499Z,85.23
2023-05-21T03:26:58.328Z,85.24
2023-05-21T03:27:58.562Z,85.22
2023-05-21T03:28:58.314Z,85.23
2023-05-21T03:29:58.294Z,85.24
2023-05-21T03:30:58.295Z,85.24
2023-05-21T03:31:58.367Z,85.23
2023-05-21T03:32:58.294Z,85.19
2023-05-21T03:33:58.345Z,85.18
2023-05-21T03:34:58.288Z,85.18
2023-05-21T03:35:58.238Z,85.17
2023-05-21T03:36:58.242Z,85.16
2023-05-21T03:37:58.269Z,85.14
2023-05-21T03:38:58.189Z,85.12
2023-05-21T03:39:58.304Z,85.12
2023-05-21T03:40:58.296Z,85.10
2023-05-21T03:41:58.185Z,85.13
2023-05-21T03:42:58.155Z,85.15
2023-05-21T03:43:58.311Z,85.15
2023-05-21T03:44:58.294Z,85.19
2023-05-21T03:45:58.363Z,85.20
2023-05-21T03:46:58.262Z,85.21
2023-05-21T03:47:58.343Z,85.18
2023-05-21T03:48:58.105Z,85.17
2023-05-21T03:49:58.320Z,85.13
2023-05-21T03:50:58.058Z,85.15
2023-05-21T03:51:58.310Z,85.16
2023-05-21T03:52:58.308Z,85.16
2023-05-21T03:53:58.051Z,85.13
2023-05-21T03:54:58.037Z,85.15
2023-05-21T03:55:58.323Z,85.18
2023-05-21T03:56:57.976Z,85.26
2023-05-21T03:57:58.003Z,85.25
2023-05-21T03:58:58.122Z,85.24
2023-05-21T03:59:58.317Z,85.25
2023-05-21T04:00:58.334Z,85.25
2023-05-21T04:01:58.319Z,85.27
2023-05-21T04:02:58.452Z,85.33
2023-05-21T04:03:58.112Z,85.34
2023-05-21T04:04:57.929Z,85.36
2023-05-21T04:05:58.324Z,85.40
2023-05-21T04:06:57.876Z,85.39
2023-05-21T04:07:58.323Z,85.39
2023-05-21T04:08:58.104Z,85.41
2023-05-21T04:09:58.334Z,85.42
2023-05-21T04:10:57.858Z,85.36
2023-05-21T04:11:57.877Z,85.38
2023-05-21T04:12:57.814Z,85.34
2023-05-21T04:13:57.826Z,85.34
2023-05-21T04:14:57.894Z,85.36
2023-05-21T04:15:58.000Z,85.36
2023-05-21T04:16:58.053Z,85.37
2023-05-21T04:17:58.075Z,85.34
2023-05-21T04:18:57.762Z,85.30
2023-05-21T04:19:58.134Z,85.27
2023-05-21T04:20:57.730Z,85.33
2023-05-21T04:21:58.129Z,85.31
2023-05-21T04:22:58.145Z,85.27
2023-05-21T04:23:58.030Z,85.27
2023-05-21T04:24:58.268Z,85.25
2023-05-21T04:25:58.304Z,85.32
2023-05-21T04:26:58.104Z,85.34
2023-05-21T04:27:57.664Z,85.40
2023-05-21T04:28:57.678Z,85.43
2023-05-21T04:29:57.702Z,85.43
2023-05-21T04:30:57.616Z,85.52
2023-05-21T04:31:57.736Z,85.47
2023-05-21T04:32:57.834Z,85.49
2023-05-21T04:33:57.603Z,85.40
2023-05-21T04:34:57.820Z,85.37
2023-05-21T04:35:57.989Z,85.29
2023-05-21T04:36:57.538Z,85.21
2023-05-21T04:37:57.563Z,85.19
2023-05-21T04:38:57.569Z,85.19
2023-05-21T04:39:57.964Z,85.20
2023-05-21T04:40:58.008Z,85.21
2023-05-21T04:41:57.529Z,85.19
2023-05-21T04:42:57.526Z,85.17
2023-05-21T04:43:58.099Z,85.15
2023-05-21T04:44:57.912Z,85.10
2023-05-21T04:45:57.475Z,85.00
2023-05-21T04:46:58.208Z,84.97
2023-05-21T04:47:58.242Z,84.94
2023-05-21T04:48:57.388Z,84.94
2023-05-21T04:49:58.241Z,84.97
2023-05-21T04:50:57.390Z,84.95
2023-05-21T04:51:57.382Z,84.99
2023-05-21T04:52:57.334Z,84.96
2023-05-21T04:53:57.381Z,84.90
2023-05-21T04:54:57.346Z,84.89
2023-05-21T04:55:57.357Z,84.95
2023-05-21T04:56:57.379Z,85.12
2023-05-21T04:57:57.320Z,85.18
2023-05-21T04:58:57.266Z,85.07
2023-05-21T04:59:57.349Z,85.08
2023-05-21T05:00:57.275Z,85.03
2023-05-21T05:01:57.252Z,84.92
2023-05-21T05:02:57.326Z,84.87
2023-05-21T05:03:57.468Z,84.84
2023-05-21T05:04:57.206Z,84.89
2023-05-21T05:05:57.216Z,84.94
2023-05-21T05:06:57.363Z,84.98
2023-05-21T05:07:57.214Z,85.00
2023-05-21T05:08:57.170Z,85.01
2023-05-21T05:09:57.171Z,84.88
2023-05-21T05:10:57.372Z,84.54
2023-05-21T05:11:57.180Z,84.44
2023-05-21T05:12:57.766Z,84.48
2023-05-21T05:13:57.130Z,84.43
2023-05-21T05:14:57.851Z,84.37
2023-05-21T05:15:57.461Z,84.38
2023-05-21T05:16:57.098Z,84.50
2023-05-21T05:17:57.176Z,84.45
2023-05-21T05:18:57.828Z,84.47
2023-05-21T05:19:57.064Z,84.60
2023-05-21T05:20:57.069Z,84.76
2023-05-21T05:21:57.022Z,84.74
2023-05-21T05:22:57.144Z,84.69
2023-05-21T05:23:57.046Z,84.57
2023-05-21T05:24:56.999Z,84.42
2023-05-21T05:25:56.998Z,84.33
2023-05-21T05:26:56.970Z,84.13
2023-05-21T05:27:57.257Z,84.17
2023-05-21T05:28:56.952Z,84.25
2023-05-21T05:29:56.968Z,84.08
2023-05-21T05:30:57.370Z,83.93
2023-05-21T05:31:56.914Z,83.71
2023-05-21T05:32:56.973Z,83.80
2023-05-21T05:33:56.911Z,83.90
2023-05-21T05:34:56.865Z,84.08
2023-05-21T05:35:56.875Z,84.28
2023-05-21T05:36:56.853Z,84.07
2023-05-21T05:37:56.849Z,83.95
2023-05-21T05:38:57.420Z,83.91
2023-05-21T05:39:56.834Z,83.90
2023-05-21T05:40:56.815Z,83.76
2023-05-21T05:41:56.811Z,83.63
2023-05-21T05:42:56.769Z,83.68
2023-05-21T05:43:56.800Z,83.78
2023-05-21T05:44:56.805Z,83.84
2023-05-21T05:45:56.845Z,84.04
2023-05-21T05:46:56.726Z,84.08
2023-05-21T05:47:57.086Z,83.92
2023-05-21T05:48:56.699Z,83.60
2023-05-21T05:49:56.741Z,83.38
2023-05-21T05:50:56.689Z,83.34
2023-05-21T05:51:56.704Z,83.24
2023-05-21T05:52:56.680Z,83.12
2023-05-21T05:53:56.680Z,83.28
2023-05-21T05:54:56.648Z,83.13
2023-05-21T05:55:56.635Z,83.13
2023-05-21T05:56:56.638Z,83.14
2023-05-21T05:57:56.641Z,83.27
2023-05-21T05:58:56.603Z,83.22
2023-05-21T05:59:56.765Z,83.00
2023-05-21T06:00:56.569Z,82.82
2023-05-21T06:01:56.584Z,82.57
2023-05-21T06:02:57.453Z,82.20
2023-05-21T06:03:56.588Z,82.02
2023-05-21T06:04:56.521Z,82.10
2023-05-21T06:05:56.592Z,82.17
2023-05-21T06:06:56.491Z,82.10
2023-05-21T06:07:57.425Z,81.89
2023-05-21T06:08:57.407Z,81.87
2023-05-21T06:09:56.481Z,81.71
2023-05-21T06:10:57.410Z,81.63
2023-05-21T06:11:56.474Z,81.81
2023-05-21T06:12:56.427Z,81.73
2023-05-21T06:13:56.441Z,81.32
2023-05-21T06:14:56.419Z,80.79
2023-05-21T06:15:56.441Z,80.66
2023-05-21T06:16:56.396Z,80.55
2023-05-21T06:17:56.407Z,80.29
2023-05-21T06:18:56.441Z,80.22
2023-05-21T06:19:56.409Z,79.84
2023-05-21T06:20:56.332Z,79.41
2023-05-21T06:21:56.331Z,79.23
2023-05-21T06:22:56.332Z,78.92
2023-05-21T06:23:56.324Z,79.02
2023-05-21T06:24:56.368Z,79.19
2023-05-21T06:25:56.323Z,78.61
2023-05-21T06:26:56.424Z,77.72
2023-05-21T06:27:56.290Z,77.21
2023-05-21T06:28:56.236Z,76.97
2023-05-21T06:29:56.255Z,76.91
2023-05-21T06:30:56.218Z,76.48
2023-05-21T06:31:56.436Z,76.43
2023-05-21T06:32:56.301Z,76.68
2023-05-21T06:33:56.330Z,76.72
2023-05-21T06:34:56.427Z,76.88
2023-05-21T06:35:56.207Z,76.54
2023-05-21T06:36:56.162Z,76.50
2023-05-21T06:37:56.156Z,76.83
2023-05-21T06:38:56.128Z,76.87
2023-05-21T06:39:56.137Z,75.93
2023-05-21T06:40:56.440Z,75.61
2023-05-21T06:41:56.107Z,75.59
2023-05-21T06:42:56.446Z,75.57
2023-05-21T06:43:56.106Z,75.56
2023-05-21T06:44:56.092Z,76.08
2023-05-21T06:45:56.092Z,75.91
2023-05-21T06:46:56.054Z,75.60
2023-05-21T06:47:56.051Z,75.69
2023-05-21T06:48:56.043Z,75.34
2023-05-21T06:49:56.015Z,75.56
2023-05-21T06:50:56.451Z,75.33
2023-05-21T06:51:55.982Z,75.70
2023-05-21T06:52:56.003Z,75.56
2023-05-21T06:53:55.951Z,75.31
2023-05-21T06:54:55.962Z,75.00
2023-05-21T06:55:56.449Z,74.82
2023-05-21T06:56:56.442Z,74.29
2023-05-21T06:57:55.938Z,73.99
2023-05-21T06:58:56.454Z,74.03
2023-05-21T06:59:56.456Z,73.79
2023-05-21T07:00:56.509Z,73.19
2023-05-21T07:01:55.916Z,73.20
2023-05-21T07:02:55.970Z,73.26
2023-05-21T07:03:55.914Z,72.59
2023-05-21T07:04:55.939Z,72.34
2023-05-21T07:05:55.815Z,73.10
2023-05-21T07:06:55.848Z,72.31
2023-05-21T07:07:55.779Z,72.27
2023-05-21T07:08:55.793Z,72.19
2023-05-21T07:09:55.809Z,71.66
2023-05-21T07:10:55.780Z,70.50
2023-05-21T07:11:55.812Z,70.06
2023-05-21T07:12:55.948Z,69.87
2023-05-21T07:13:55.742Z,70.02
2023-05-21T07:14:57.563Z,69.86
2023-05-21T07:15:55.698Z,69.92
2023-05-21T07:16:55.752Z,70.60
2023-05-21T07:17:55.726Z,71.51
2023-05-21T07:18:55.785Z,72.22
2023-05-21T07:19:56.317Z,70.58
2023-05-21T07:20:56.354Z,70.27
2023-05-21T07:21:55.648Z,70.49
2023-05-21T07:22:55.652Z,70.58
2023-05-21T07:23:55.639Z,70.30
2023-05-21T07:24:56.457Z,69.96
2023-05-21T07:25:55.584Z,69.97
2023-05-21T07:26:55.599Z,69.92
2023-05-21T07:27:55.578Z,70.30
2023-05-21T07:28:56.483Z,70.47
2023-05-21T07:29:55.563Z,70.95
2023-05-21T07:30:56.456Z,71.24
2023-05-21T07:31:56.308Z,71.43
2023-05-21T07:32:55.605Z,71.40
2023-05-21T07:33:55.484Z,71.48
2023-05-21T07:34:55.501Z,71.85
2023-05-21T07:35:55.481Z,72.39
2023-05-21T07:36:55.510Z,72.48
2023-05-21T07:37:55.448Z,72.53
2023-05-21T07:38:55.460Z,72.32
2023-05-21T07:39:55.442Z,72.50
2023-05-21T07:40:55.433Z,72.09
2023-05-21T07:41:55.404Z,71.40
2023-05-21T07:42:55.436Z,71.33
2023-05-21T07:43:55.390Z,71.19
2023-05-21T07:44:55.496Z,70.81
2023-05-21T07:45:55.367Z,70.93
2023-05-21T07:46:55.484Z,70.29
2023-05-21T07:47:55.370Z,71.00
2023-05-21T07:48:55.350Z,71.13
2023-05-21T07:49:55.343Z,70.36
2023-05-21T07:50:55.313Z,68.99
2023-05-21T07:51:55.334Z,69.83
2023-05-21T07:52:55.391Z,69.94
2023-05-21T07:53:55.563Z,70.38
2023-05-21T07:54:55.324Z,69.66
2023-05-21T07:55:55.250Z,69.66
2023-05-21T07:56:55.277Z,69.98
2023-05-21T07:57:55.217Z,69.15
2023-05-21T07:58:55.234Z,68.31
2023-05-21T07:59:55.213Z,69.63
2023-05-21T08:00:55.458Z,69.87
2023-05-21T08:01:55.190Z,70.25
2023-05-21T08:02:55.316Z,68.35
2023-05-21T08:03:55.288Z,68.40
2023-05-21T08:04:55.316Z,68.70
2023-05-21T08:05:55.138Z,68.97
2023-05-21T08:06:55.142Z,69.38
2023-05-21T08:07:55.130Z,69.22
2023-05-21T08:08:55.114Z,68.88
2023-05-21T08:09:55.111Z,68.90
2023-05-21T08:10:55.508Z,69.12
2023-05-21T08:11:55.083Z,69.36
2023-05-21T08:12:55.056Z,68.21
2023-05-21T08:13:55.064Z,68.75
2023-05-21T08:14:55.032Z,69.17
2023-05-21T08:15:55.093Z,69.48
2023-05-21T08:16:55.514Z,69.66
2023-05-21T08:17:55.047Z,70.00
2023-05-21T08:18:55.028Z,70.62
2023-05-21T08:19:54.973Z,69.57
2023-05-21T08:20:55.023Z,69.90
2023-05-21T08:21:54.992Z,70.71
2023-05-21T08:22:54.979Z,70.55
2023-05-21T08:23:54.931Z,70.70
2023-05-21T08:24:55.325Z,70.83
2023-05-21T08:25:55.516Z,71.07
2023-05-21T08:26:54.912Z,71.24
2023-05-21T08:27:54.882Z,71.34
2023-05-21T08:28:54.899Z,71.73
2023-05-21T08:29:54.851Z,71.70
2023-05-21T08:30:54.955Z,71.97
2023-05-21T08:31:54.908Z,72.17
2023-05-21T08:32:55.181Z,72.18
2023-05-21T08:33:54.816Z,71.98
2023-05-21T08:34:54.856Z,72.01
2023-05-21T08:35:54.800Z,71.79
2023-05-21T08:36:54.829Z,72.25
2023-05-21T08:37:54.802Z,72.24
2023-05-21T08:38:54.766Z,72.33
2023-05-21T08:39:54.740Z,72.21
2023-05-21T08:40:55.333Z,72.07
2023-05-21T08:41:55.129Z,71.88
2023-05-21T08:42:55.114Z,71.81
2023-05-21T08:43:55.012Z,71.92
2023-05-21T08:44:54.700Z,71.49
2023-05-21T08:45:54.722Z,70.33
2023-05-21T08:46:54.690Z,70.62
2023-05-21T08:47:54.706Z,70.82
2023-05-21T08:48:54.651Z,70.85
2023-05-21T08:49:54.675Z,69.98
2023-05-21T08:50:54.655Z,69.60
2023-05-21T08:51:54.604Z,70.23
2023-05-21T08:52:54.623Z,70.37
2023-05-21T08:53:54.582Z,68.60
2023-05-21T08:54:54.644Z,68.23
2023-05-21T08:55:54.556Z,67.50
2023-05-21T08:56:54.569Z,67.12
2023-05-21T08:57:54.566Z,67.75
2023-05-21T08:58:54.566Z,66.90
2023-05-21T08:59:54.535Z,66.82
2023-05-21T09:00:54.531Z,66.99
2023-05-21T09:01:54.507Z,67.15
2023-05-21T09:02:54.772Z,67.00
2023-05-21T09:03:59.073Z,66.91
2023-05-21T09:04:55.474Z,66.95
2023-05-21T09:05:54.549Z,67.09
2023-05-21T09:06:54.570Z,67.52
2023-05-21T09:07:54.546Z,68.25
2023-05-21T09:08:54.420Z,67.15
2023-05-21T09:09:54.397Z,68.24
2023-05-21T09:10:54.434Z,68.05
2023-05-21T09:11:54.407Z,68.14
2023-05-21T09:12:54.395Z,67.29
2023-05-21T09:13:54.366Z,67.64
2023-05-21T09:14:54.375Z,66.74
2023-05-21T09:15:54.460Z,65.65
2023-05-21T09:16:54.369Z,65.51
2023-05-21T09:17:54.341Z,66.35
2023-05-21T09:18:54.372Z,66.51
2023-05-21T09:19:54.279Z,66.62
2023-05-21T09:20:54.298Z,64.27
2023-05-21T09:21:54.284Z,64.26
2023-05-21T09:22:54.265Z,64.88
2023-05-21T09:23:54.262Z,65.57
2023-05-21T09:24:54.250Z,65.01
2023-05-21T09:25:54.227Z,64.29
2023-05-21T09:26:54.569Z,65.15
2023-05-21T09:27:54.217Z,63.56
2023-05-21T09:28:54.230Z,64.99
2023-05-21T09:29:54.174Z,64.86
2023-05-21T09:30:54.344Z,64.02
2023-05-21T09:31:54.227Z,64.03
2023-05-21T09:32:54.212Z,62.79
2023-05-21T09:33:54.132Z,63.27
2023-05-21T09:34:54.512Z,63.59
2023-05-21T09:35:54.127Z,64.82
2023-05-21T09:36:54.122Z,64.30
2023-05-21T09:37:54.085Z,63.92
2023-05-21T09:38:54.109Z,63.89
2023-05-21T09:39:54.101Z,64.74
2023-05-21T09:40:54.094Z,62.35
2023-05-21T09:41:54.057Z,62.09
2023-05-21T09:42:54.054Z,63.15
2023-05-21T09:43:54.037Z,64.21
2023-05-21T09:44:54.058Z,63.15
2023-05-21T09:45:54.130Z,61.75
2023-05-21T09:46:54.075Z,63.15
2023-05-21T09:47:54.038Z,63.30
2023-05-21T09:48:53.998Z,63.55
2023-05-21T09:49:53.970Z,62.49
2023-05-21T09:50:53.963Z,63.87
2023-05-21T09:51:53.967Z,63.94
2023-05-21T09:52:53.932Z,62.75
2023-05-21T09:53:53.924Z,62.09
2023-05-21T09:54:53.935Z,63.83
2023-05-21T09:55:53.880Z,62.86
2023-05-21T09:56:53.903Z,64.07
2023-05-21T09:57:53.874Z,63.37
2023-05-21T09:58:53.860Z,63.14
2023-05-21T09:59:53.861Z,62.88
2023-05-21T10:00:53.850Z,63.53
2023-05-21T10:01:53.821Z,61.23
2023-05-21T10:02:53.908Z,62.03
2023-05-21T10:03:53.901Z,63.17
2023-05-21T10:04:53.881Z,62.32
2023-05-21T10:05:53.794Z,62.42
2023-05-21T10:06:54.074Z,62.05
2023-05-21T10:07:53.747Z,61.87
2023-05-21T10:08:53.758Z,61.65
2023-05-21T10:09:54.677Z,62.39
2023-05-21T10:10:53.757Z,61.08
2023-05-21T10:11:53.689Z,60.60
2023-05-21T10:12:53.704Z,61.11
2023-05-21T10:13:53.678Z,61.87
2023-05-21T10:14:53.709Z,62.31
2023-05-21T10:15:53.724Z,63.62
2023-05-21T10:16:53.657Z,61.84
2023-05-21T10:17:54.728Z,61.52
2023-05-21T10:18:53.673Z,60.12
2023-05-21T10:19:53.608Z,60.91
2023-05-21T10:20:53.683Z,61.51
2023-05-21T10:21:53.581Z,62.40
2023-05-21T10:22:53.622Z,61.78
2023-05-21T10:23:53.560Z,61.51
2023-05-21T10:24:53.603Z,61.46
2023-05-21T10:25:53.788Z,61.43
2023-05-21T10:26:53.563Z,61.71
2023-05-21T10:27:53.537Z,60.62
2023-05-21T10:28:53.522Z,61.12
2023-05-21T10:29:53.513Z,61.03
2023-05-21T10:30:53.518Z,60.27
2023-05-21T10:31:53.537Z,60.48
2023-05-21T10:32:53.636Z,60.29
2023-05-21T10:33:53.588Z,60.59
2023-05-21T10:34:53.468Z,61.44
2023-05-21T10:35:53.515Z,61.19
2023-05-21T10:36:53.436Z,61.07
2023-05-21T10:37:53.435Z,60.46
2023-05-21T10:38:53.648Z,60.44
2023-05-21T10:39:53.392Z,61.08
2023-05-21T10:40:53.391Z,60.60
2023-05-21T10:41:54.427Z,60.02
2023-05-21T10:42:53.381Z,60.33
2023-05-21T10:43:53.638Z,62.07
2023-05-21T10:44:53.343Z,61.38
2023-05-21T10:45:53.461Z,61.72
2023-05-21T10:46:53.645Z,60.53
2023-05-21T10:47:54.473Z,60.72
2023-05-21T10:48:53.638Z,60.04
2023-05-21T10:49:53.305Z,61.01
2023-05-21T10:50:53.267Z,60.04
2023-05-21T10:51:53.237Z,60.22
2023-05-21T10:52:53.271Z,60.70
2023-05-21T10:53:53.226Z,59.96
2023-05-21T10:54:53.534Z,59.84
2023-05-21T10:55:53.246Z,59.57
2023-05-21T10:56:53.195Z,60.14
2023-05-21T10:57:53.400Z,59.87
2023-05-21T10:58:53.184Z,59.72
2023-05-21T10:59:53.174Z,60.67
2023-05-21T11:00:53.184Z,60.28
2023-05-21T11:01:53.249Z,60.09
2023-05-21T11:02:53.708Z,60.42
2023-05-21T11:03:53.178Z,60.56
2023-05-21T11:04:53.121Z,60.59
2023-05-21T11:05:53.146Z,60.82
2023-05-21T11:06:53.078Z,60.05
2023-05-21T11:07:53.139Z,60.44
2023-05-21T11:08:55.122Z,60.26
2023-05-21T11:09:53.664Z,60.55
2023-05-21T11:10:53.282Z,59.96
2023-05-21T11:11:53.036Z,60.09
2023-05-21T11:12:53.029Z,60.29
2023-05-21T11:13:53.109Z,60.06
2023-05-21T11:14:52.998Z,60.44
2023-05-21T11:15:52.992Z,60.44
2023-05-21T11:16:53.955Z,60.53
2023-05-21T11:17:53.013Z,61.37
2023-05-21T11:18:53.251Z,60.76
2023-05-21T11:19:52.970Z,61.21
2023-05-21T11:20:52.917Z,60.63
2023-05-21T11:21:53.345Z,60.55
2023-05-21T11:22:52.890Z,60.83
2023-05-21T11:23:52.917Z,60.26
2023-05-21T11:24:52.867Z,60.30
2023-05-21T11:25:52.869Z,60.20
2023-05-21T11:26:52.873Z,59.87
2023-05-21T11:27:52.876Z,60.27
2023-05-21T11:28:52.842Z,59.82
2023-05-21T11:29:53.077Z,60.22
2023-05-21T11:30:52.794Z,59.98
2023-05-21T11:31:52.972Z,59.85
2023-05-21T11:32:52.800Z,59.50
2023-05-21T11:33:52.790Z,59.07
2023-05-21T11:34:52.793Z,59.26
2023-05-21T11:35:52.792Z,59.71
2023-05-21T11:36:52.732Z,58.98
2023-05-21T11:37:53.409Z,59.29
2023-05-21T11:38:52.720Z,59.59
2023-05-21T11:39:52.752Z,60.31
2023-05-21T11:40:52.681Z,59.55
2023-05-21T11:41:52.756Z,58.94
2023-05-21T11:42:52.696Z,58.59
2023-05-21T11:43:52.664Z,59.63
2023-05-21T11:44:52.652Z,59.25
2023-05-21T11:45:52.700Z,58.97
2023-05-21T11:46:52.779Z,59.34
2023-05-21T11:47:52.783Z,59.63
2023-05-21T11:48:52.586Z,60.25
2023-05-21T11:49:52.590Z,60.50
2023-05-21T11:50:52.679Z,60.28
2023-05-21T11:51:52.565Z,60.24
2023-05-21T11:52:52.546Z,59.95
2023-05-21T11:53:52.544Z,59.95
2023-05-21T11:54:52.518Z,59.80
2023-05-21T11:55:52.548Z,60.14
2023-05-21T11:56:52.499Z,60.54
2023-05-21T11:57:52.563Z,60.62
2023-05-21T11:58:52.485Z,61.36
2023-05-21T11:59:52.488Z,58.82
2023-05-21T12:00:52.496Z,58.93
2023-05-21T12:01:52.454Z,59.28
2023-05-21T12:02:52.580Z,59.43
2023-05-21T12:03:52.532Z,59.75
2023-05-21T12:04:52.433Z,60.46
2023-05-21T12:05:52.461Z,60.46
2023-05-21T12:06:52.393Z,60.44
2023-05-21T12:07:52.531Z,59.91
2023-05-21T12:08:52.400Z,59.69
2023-05-21T12:09:52.716Z,59.66
2023-05-21T12:10:52.362Z,59.96
2023-05-21T12:11:52.353Z,60.05
2023-05-21T12:12:55.481Z,60.39
2023-05-21T12:13:52.342Z,60.14
2023-05-21T12:14:52.280Z,60.16
2023-05-21T12:15:52.318Z,60.45
2023-05-21T12:16:52.375Z,60.94
2023-05-21T12:17:52.349Z,60.47
2023-05-21T12:18:52.282Z,60.80
2023-05-21T12:19:52.263Z,61.13
2023-05-21T12:20:52.336Z,60.61
2023-05-21T12:21:52.270Z,61.23
2023-05-21T12:22:52.200Z,60.44
2023-05-21T12:23:52.226Z,60.32
2023-05-21T12:24:52.193Z,60.00
2023-05-21T12:25:52.215Z,60.73
2023-05-21T12:26:52.173Z,61.02
2023-05-21T12:27:52.167Z,60.94
2023-05-21T12:28:52.129Z,61.16
2023-05-21T12:29:52.137Z,60.81
2023-05-21T12:30:52.150Z,60.78
2023-05-21T12:31:52.138Z,60.77
2023-05-21T12:32:52.121Z,60.36
2023-05-21T12:33:52.127Z,60.72
2023-05-21T12:34:52.062Z,61.11
2023-05-21T12:35:52.126Z,61.15
2023-05-21T12:36:52.056Z,60.95
2023-05-21T12:37:52.137Z,60.94
2023-05-21T12:38:52.035Z,60.68
2023-05-21T12:39:52.020Z,60.85
2023-05-21T12:40:52.000Z,60.91
2023-05-21T12:41:51.992Z,60.20
2023-05-21T12:42:52.092Z,60.41
2023-05-21T12:43:51.985Z,59.86
2023-05-21T12:44:51.946Z,60.02
2023-05-21T12:45:52.025Z,59.93
2023-05-21T12:46:51.930Z,60.19
2023-05-21T12:47:51.942Z,60.93
2023-05-21T12:48:51.946Z,60.84
2023-05-21T12:49:54.772Z,61.05
2023-05-21T12:50:51.921Z,60.33
2023-05-21T12:51:51.904Z,60.62